createdAt,value
2019-02-27T00:02:35.783Z,100083.06
2019-02-27T00:07:41.987Z,100089.94
2019-02-27T00:13:06.721Z,100085.37
2019-02-27T00:18:12.413Z,100085.77
2019-02-27T00:23:36.782Z,100078.28
2019-02-27T00:28:55.935Z,100066.64
2019-02-27T00:34:00.775Z,100066.14
2019-02-27T00:39:18.869Z,100061.85
2019-02-27T00:49:59.713Z,100055.34
2019-02-27T00:55:16.236Z,100050.70
2019-02-27T01:00:21.479Z,100049.12
2019-02-27T01:05:45.991Z,100047.95
2019-02-27T01:11:32.240Z,100053.33
2019-02-27T01:16:37.477Z,100055.91
2019-02-27T01:21:42.720Z,100050.87
2019-02-27T01:26:47.898Z,100047.86
2019-02-27T01:32:12.592Z,100046.44
2019-02-27T01:37:17.806Z,100044.53
2019-02-27T01:42:34.530Z,100033.11
2019-02-27T01:47:51.076Z,100036.13
2019-02-27T01:52:56.276Z,100025.47
2019-02-27T01:58:20.597Z,100019.85
2019-02-27T02:03:39.274Z,100018.52
2019-02-27T02:08:55.959Z,100012.03
2019-02-27T02:14:44.092Z,100000.24
2019-02-27T02:20:27.793Z,99990.12
2019-02-27T02:32:20.211Z,99973.47
2019-02-27T02:38:03.557Z,99952.95
2019-02-27T02:43:20.933Z,99957.77
2019-02-27T02:49:07.899Z,99950.95
2019-02-27T02:54:54.797Z,99955.02
2019-02-27T03:00:39.246Z,99940.87
2019-02-27T03:06:16.143Z,99936.00
2019-02-27T03:17:54.772Z,99917.20
2019-02-27T03:23:51.029Z,99910.75
2019-02-27T03:29:37.285Z,99910.53
2019-02-27T03:35:28.001Z,99908.58
2019-02-27T03:41:00.258Z,99908.74
2019-02-27T03:46:43.823Z,99905.14
2019-02-27T03:52:27.085Z,99904.08
2019-02-27T03:58:26.804Z,99864.28
2019-02-27T04:04:00.831Z,99886.45
2019-02-27T04:14:43.544Z,99880.93
2019-02-27T04:19:48.755Z,99884.32
2019-02-27T04:24:56.842Z,99887.84
2019-02-27T04:30:50.997Z,99893.64
2019-02-27T04:47:14.284Z,99900.20
2019-02-27T04:52:21.928Z,99896.83
2019-02-27T04:57:33.710Z,99896.23
2019-02-27T05:03:03.576Z,99894.70
2019-02-27T05:08:08.912Z,99900.12
2019-02-27T05:18:51.138Z,99894.75
2019-02-27T05:23:56.388Z,99894.43
2019-02-27T05:29:01.651Z,99896.31
2019-02-27T05:34:07.108Z,99892.86
2019-02-27T05:45:02.500Z,99890.67
2019-02-27T05:50:09.419Z,99894.61
2019-02-27T06:01:14.868Z,99883.76
2019-02-27T06:06:20.083Z,99882.13
2019-02-27T06:27:56.058Z,99872.02
2019-02-27T06:38:18.245Z,99853.68
2019-02-27T06:43:35.624Z,99861.39
2019-02-27T06:48:43.034Z,99865.11
2019-02-27T06:54:06.929Z,99863.37
2019-02-27T07:04:48.291Z,99853.14
2019-02-27T07:10:13.407Z,99854.33
2019-02-27T07:15:29.927Z,99852.80
2019-02-27T07:20:35.153Z,99850.19
2019-02-27T07:25:42.166Z,99837.87
2019-02-27T07:31:06.841Z,99837.08
2019-02-27T07:36:24.015Z,99834.25
2019-02-27T07:41:29.696Z,99833.61
2019-02-27T07:46:35.660Z,99837.66
2019-02-27T07:51:48.563Z,99831.73
2019-02-27T07:56:59.735Z,99842.53
2019-02-27T08:02:05.088Z,99831.23
2019-02-27T08:07:12.394Z,99834.11
2019-02-27T08:12:41.719Z,99835.69
2019-02-27T08:17:58.775Z,99837.41
2019-02-27T08:23:23.770Z,99826.88
2019-02-27T08:39:28.971Z,99819.08
2019-02-27T08:50:13.880Z,99816.16
2019-02-27T08:55:44.005Z,99813.99
2019-02-27T09:11:37.180Z,99786.64
2019-02-27T09:16:49.037Z,99782.58
2019-02-27T09:21:54.627Z,99781.70
2019-02-27T09:32:16.465Z,99766.95
2019-02-27T09:37:23.374Z,99758.77
2019-02-27T09:42:28.599Z,99742.19
2019-02-27T09:47:33.971Z,99744.91
2019-02-27T09:52:50.958Z,99733.66
2019-02-27T09:57:56.366Z,99728.90
2019-02-27T10:03:01.876Z,99731.19
2019-02-27T10:13:44.089Z,99721.24
2019-02-27T10:24:17.913Z,99718.53
2019-02-27T10:34:40.235Z,99697.33
2019-02-27T10:39:51.405Z,99687.38
2019-02-27T10:44:56.706Z,99682.27
2019-02-27T10:50:13.505Z,99670.52
2019-02-27T10:55:18.796Z,99666.25
2019-02-27T11:00:35.256Z,99664.27
2019-02-27T11:05:55.314Z,99650.16
2019-02-27T11:10:58.910Z,99644.31
2019-02-27T11:21:21.715Z,99635.06
2019-02-27T11:26:27.330Z,99621.66
2019-02-27T11:31:45.464Z,99613.64
2019-02-27T11:36:50.696Z,99602.15
2019-02-27T11:42:13.749Z,99599.64
2019-02-27T11:58:31.470Z,99565.22
2019-02-27T12:03:36.708Z,99560.80
2019-02-27T12:13:58.600Z,99539.82
2019-02-27T12:24:53.468Z,99515.78
2019-02-27T12:30:21.239Z,99503.92
2019-02-27T12:41:18.615Z,99491.59
2019-02-27T12:46:24.260Z,99473.58
2019-02-27T12:51:29.721Z,99472.20
2019-02-27T12:56:35.004Z,99451.48
2019-02-27T13:01:40.224Z,99438.13
2019-02-27T13:06:45.436Z,99436.51
2019-02-27T13:11:50.789Z,99427.94
2019-02-27T13:16:56.003Z,99428.38
2019-02-27T13:22:01.213Z,99413.30
2019-02-27T13:27:09.048Z,99407.09
2019-02-27T13:32:13.598Z,99400.85
2019-02-27T13:37:19.059Z,99395.66
2019-02-27T13:42:24.423Z,99393.13
2019-02-27T13:47:31.155Z,99385.30
2019-02-27T13:52:37.361Z,99377.10
2019-02-27T13:57:42.622Z,99363.30
2019-02-27T14:02:47.921Z,99356.27
2019-02-27T14:07:57.101Z,99352.26
2019-02-27T14:13:01.051Z,99354.03
2019-02-27T14:18:06.678Z,99340.63
2019-02-27T14:23:14.538Z,99332.63
2019-02-27T14:28:21.060Z,99320.42
2019-02-27T14:33:26.042Z,99317.38
2019-02-27T14:38:31.251Z,99315.00
2019-02-27T14:43:36.612Z,99310.78
2019-02-27T14:48:42.012Z,99303.98
2019-02-27T14:53:55.752Z,99291.19
2019-02-27T14:59:06.171Z,99279.87
2019-02-27T15:04:32.293Z,99269.39
2019-02-27T15:09:57.105Z,99253.17
2019-02-27T15:15:22.659Z,99253.85
2019-02-27T15:20:47.052Z,99245.35
2019-02-27T15:26:16.339Z,99235.34
2019-02-27T15:31:39.520Z,99230.52
2019-02-27T15:36:57.037Z,99223.03
2019-02-27T15:42:03.241Z,99220.11
2019-02-27T16:03:45.527Z,99190.91
2019-02-27T16:14:13.342Z,99174.38
2019-02-27T16:19:37.694Z,99169.72
2019-02-27T16:24:43.926Z,99174.77
2019-02-27T16:29:59.399Z,99171.03
2019-02-27T16:35:19.387Z,99163.67
2019-02-27T16:40:36.043Z,99160.05
2019-02-27T16:45:52.796Z,99153.81
2019-02-27T16:51:00.612Z,99159.16
2019-02-27T17:01:46.170Z,99157.39
2019-02-27T17:07:10.875Z,99153.38
2019-02-27T17:18:12.831Z,99153.83
2019-02-27T17:23:46.530Z,99151.67
2019-02-27T17:29:03.906Z,99149.30
2019-02-27T17:39:39.697Z,99135.22
2019-02-27T17:50:22.215Z,99147.98
2019-02-27T17:55:27.519Z,99143.95
2019-02-27T18:00:51.810Z,99141.63
2019-02-27T18:06:16.080Z,99140.85
2019-02-27T18:16:37.814Z,99139.91
2019-02-27T18:21:43.073Z,99129.44
2019-02-27T18:26:51.174Z,99134.81
2019-02-27T18:32:20.250Z,99120.84
2019-02-27T18:37:25.471Z,99114.66
2019-02-27T18:42:42.726Z,99116.91
2019-02-27T18:47:49.255Z,99109.66
2019-02-27T18:52:54.444Z,99100.50
2019-02-27T18:57:59.643Z,99098.05
2019-02-27T19:09:00.742Z,99084.28
2019-02-27T19:14:30.850Z,99081.49
2019-02-27T19:19:50.331Z,99076.98
2019-02-27T19:25:15.623Z,99068.20
2019-02-27T19:30:41.834Z,99066.95
2019-02-27T19:35:57.529Z,99060.23
2019-02-27T19:41:08.881Z,99055.95
2019-02-27T19:57:28.443Z,99055.98
2019-02-27T20:02:34.153Z,99042.19
2019-02-27T20:07:39.841Z,99042.78
2019-02-27T20:12:56.988Z,99041.77
2019-02-27T20:18:07.900Z,99038.82
2019-02-27T20:23:26.824Z,99031.16
2019-02-27T20:28:33.144Z,99021.88
2019-02-27T20:33:55.472Z,99024.28
2019-02-27T20:39:12.063Z,99017.37
2019-02-27T20:44:17.174Z,99023.64
2019-02-27T20:49:22.493Z,99010.40
2019-02-27T21:00:21.900Z,99009.71
2019-02-27T21:05:48.516Z,98996.56
2019-02-27T21:11:13.471Z,98981.77
2019-02-27T21:16:19.021Z,98990.95
2019-02-27T21:21:36.029Z,98985.66
2019-02-27T21:26:54.174Z,98985.15
2019-02-27T21:32:12.749Z,98988.66
2019-02-27T21:37:18.073Z,98979.41
2019-02-27T21:48:13.121Z,98973.78
2019-02-27T21:53:29.777Z,98967.34
2019-02-27T21:58:35.476Z,98968.67
2019-02-27T22:09:13.628Z,98960.62
2019-02-27T22:14:34.559Z,98966.17
2019-02-27T22:19:59.461Z,98958.91
2019-02-27T22:25:15.907Z,98956.72
2019-02-27T22:35:58.864Z,98945.81
2019-02-27T22:41:04.657Z,98940.05
2019-02-27T22:51:27.361Z,98925.55
2019-02-27T22:56:50.041Z,98920.56
2019-02-27T23:02:32.234Z,98916.09
2019-02-27T23:07:37.480Z,98909.27
2019-02-27T23:12:42.775Z,98905.39
2019-02-27T23:17:48.090Z,98906.48
2019-02-27T23:22:53.608Z,98901.27
2019-02-27T23:28:00.941Z,98896.37
2019-02-27T23:33:25.595Z,98891.05
2019-02-27T23:49:18.847Z,98893.68
2019-02-27T23:54:44.300Z,98891.21
2019-02-27T23:59:55.751Z,98884.62
